createdAt,value
2018-02-15T00:03:37.714Z,13.80
2018-02-15T00:08:38.727Z,14.37
2018-02-15T00:13:39.794Z,14.20
2018-02-15T00:18:40.803Z,15.43
2018-02-15T00:23:42.539Z,14.87
2018-02-15T00:28:43.560Z,14.23
2018-02-15T00:33:44.586Z,14.23
2018-02-15T00:38:45.603Z,13.27
2018-02-15T00:43:46.602Z,13.93
2018-02-15T00:48:47.603Z,14.70
2018-02-15T00:53:48.614Z,14.80
2018-02-15T00:58:49.619Z,15.40
2018-02-15T01:03:50.616Z,14.30
2018-02-15T01:08:51.624Z,15.70
2018-02-15T01:13:52.620Z,15.43
2018-02-15T01:18:53.691Z,15.10
2018-02-15T01:23:56.120Z,14.10
2018-02-15T01:28:57.878Z,14.53
2018-02-15T01:33:58.878Z,12.93
2018-02-15T01:38:59.854Z,14.43
2018-02-15T01:44:00.883Z,13.63
2018-02-15T01:49:02.611Z,12.67
2018-02-15T01:54:03.606Z,11.80
2018-02-15T01:59:04.590Z,12.47
2018-02-15T02:04:05.662Z,11.20
2018-02-15T02:09:06.668Z,10.80
2018-02-15T02:14:08.071Z,10.17
2018-02-15T02:19:09.075Z,10.60
2018-02-15T02:24:10.151Z,10.00
2018-02-15T02:29:11.142Z,10.47
2018-02-15T02:34:12.886Z,8.70
2018-02-15T02:39:13.899Z,8.53
2018-02-15T02:44:14.918Z,8.67
2018-02-15T02:49:16.671Z,8.20
2018-02-15T02:54:17.700Z,8.73
2018-02-15T02:59:18.715Z,9.90
2018-02-15T03:04:19.719Z,9.73
2018-02-15T03:09:20.728Z,8.63
2018-02-15T03:14:21.718Z,9.60
2018-02-15T03:19:22.719Z,10.27
2018-02-15T03:24:24.458Z,9.77
2018-02-15T03:29:25.464Z,8.97
2018-02-15T03:34:26.471Z,9.63
2018-02-15T03:39:28.311Z,9.00
2018-02-15T03:44:29.319Z,8.97
2018-02-15T03:49:30.367Z,8.43
2018-02-15T03:54:32.162Z,8.67
2018-02-15T03:59:33.886Z,8.60
2018-02-15T04:04:34.874Z,8.70
2018-02-15T04:09:35.866Z,8.20
2018-02-15T04:14:36.896Z,8.10
2018-02-15T04:19:37.930Z,7.40
2018-02-15T04:24:38.923Z,7.93
2018-02-15T04:29:39.911Z,7.87
2018-02-15T04:34:40.915Z,6.93
2018-02-15T04:39:41.919Z,8.63
2018-02-15T04:44:43.646Z,8.40
2018-02-15T04:49:44.655Z,9.50
2018-02-15T04:54:45.723Z,10.10
2018-02-15T04:59:46.718Z,10.13
2018-02-15T05:04:47.762Z,9.70
2018-02-15T05:09:48.762Z,10.13
2018-02-15T05:14:49.751Z,10.83
2018-02-15T05:19:50.742Z,11.93
2018-02-15T05:24:51.735Z,12.30
2018-02-15T05:29:52.746Z,12.53
2018-02-15T05:34:54.532Z,12.57
2018-02-15T05:39:55.814Z,15.73
2018-02-15T05:44:56.810Z,12.40
2018-02-15T05:49:57.806Z,12.83
2018-02-15T05:54:58.801Z,11.23
2018-02-15T05:59:59.888Z,10.67
2018-02-15T06:05:01.635Z,9.57
2018-02-15T06:10:03.523Z,10.80
2018-02-15T06:15:04.540Z,10.50
2018-02-15T06:20:05.609Z,10.23
2018-02-15T06:25:06.596Z,6.63
2018-02-15T06:30:07.611Z,6.20
2018-02-15T06:35:09.099Z,6.27
2018-02-15T06:40:10.115Z,5.83
2018-02-15T06:45:11.112Z,6.17
2018-02-15T06:50:12.112Z,5.20
2018-02-15T06:55:28.090Z,6.40
2018-02-15T07:00:29.086Z,5.60
2018-02-15T07:05:30.226Z,6.77
2018-02-15T07:10:31.214Z,6.70
2018-02-15T07:15:32.223Z,6.10
2018-02-15T07:20:33.784Z,6.37
2018-02-15T07:25:34.817Z,6.97
2018-02-15T07:30:35.815Z,7.23
2018-02-15T07:35:36.807Z,7.80
2018-02-15T07:40:37.867Z,6.17
2018-02-15T07:45:39.604Z,6.03
2018-02-15T07:50:40.626Z,6.90
2018-02-15T07:55:41.622Z,7.70
2018-02-15T08:00:42.627Z,7.90
2018-02-15T08:05:43.646Z,7.30
2018-02-15T08:10:44.683Z,8.80
2018-02-15T08:15:46.419Z,8.57
2018-02-15T08:20:47.420Z,8.33
2018-02-15T08:25:48.439Z,10.27
2018-02-15T08:30:50.191Z,11.50
2018-02-15T08:35:51.208Z,10.60
2018-02-15T08:40:52.204Z,9.83
2018-02-15T08:45:53.966Z,10.40
2018-02-15T08:50:54.967Z,10.90
2018-02-15T08:55:55.959Z,9.80
2018-02-15T09:00:56.970Z,10.20
2018-02-15T09:05:58.714Z,9.50
2018-02-15T09:10:59.695Z,10.83
2018-02-15T09:16:00.719Z,9.40
2018-02-15T09:21:02.098Z,9.67
2018-02-15T09:26:03.856Z,9.47
2018-02-15T09:31:04.871Z,11.13
2018-02-15T09:36:05.876Z,12.73
2018-02-15T09:41:07.628Z,11.80
2018-02-15T09:46:08.631Z,11.43
2018-02-15T09:51:09.618Z,12.00
2018-02-15T09:56:10.638Z,11.20
2018-02-15T10:01:12.390Z,10.60
2018-02-15T10:06:13.400Z,16.77
2018-02-15T10:11:15.163Z,15.00
2018-02-15T10:16:16.296Z,13.83
2018-02-15T10:21:18.055Z,13.23
2018-02-15T10:26:19.832Z,13.00
2018-02-15T10:31:20.858Z,13.43
2018-02-15T10:36:21.846Z,11.03
2018-02-15T10:41:23.606Z,11.30
2018-02-15T10:46:24.615Z,12.20
2018-02-15T10:51:25.621Z,12.50
2018-02-15T10:56:27.377Z,12.40
2018-02-15T11:01:34.842Z,13.73
2018-02-15T11:06:35.917Z,12.30
2018-02-15T11:11:36.947Z,11.40
2018-02-15T11:16:37.947Z,11.87
2018-02-15T11:21:38.946Z,12.50
2018-02-15T11:26:39.934Z,12.40
2018-02-15T11:31:40.963Z,12.43
2018-02-15T11:36:43.015Z,12.77
2018-02-15T11:41:44.021Z,13.40
2018-02-15T11:46:45.015Z,12.93
2018-02-15T11:51:46.043Z,12.40
2018-02-15T11:56:47.028Z,13.37
2018-02-15T12:01:48.040Z,13.57
2018-02-15T12:06:49.057Z,14.00
2018-02-15T12:11:50.055Z,18.03
2018-02-15T12:16:51.795Z,16.50
2018-02-15T12:21:52.839Z,17.83
2018-02-15T12:26:54.577Z,16.80
2018-02-15T12:31:56.199Z,18.27
2018-02-15T12:36:57.198Z,16.93
2018-02-15T12:41:58.182Z,15.30
2018-02-15T12:46:59.199Z,15.53
2018-02-15T12:52:00.239Z,15.30
2018-02-15T12:57:01.256Z,14.13
2018-02-15T13:02:03.001Z,13.90
2018-02-15T13:07:04.051Z,12.97
2018-02-15T13:12:05.055Z,12.70
2018-02-15T13:17:06.048Z,11.80
2018-02-15T13:22:19.471Z,11.93
2018-02-15T13:27:33.755Z,11.30
2018-02-15T13:32:34.762Z,11.90
2018-02-15T13:37:36.547Z,10.03
2018-02-15T13:42:37.578Z,11.60
2018-02-15T13:47:38.606Z,12.17
2018-02-15T13:52:39.620Z,11.33
2018-02-15T13:57:40.642Z,12.80
2018-02-15T14:02:41.659Z,13.77
2018-02-15T14:07:42.644Z,13.53
2018-02-15T14:12:43.681Z,14.33
2018-02-15T14:17:44.699Z,14.93
2018-02-15T14:22:45.708Z,15.10
2018-02-15T14:27:46.755Z,16.60
2018-02-15T14:32:47.779Z,15.27
2018-02-15T14:37:48.794Z,14.53
2018-02-15T14:42:49.774Z,15.97
2018-02-15T14:47:50.838Z,17.63
2018-02-15T14:52:51.851Z,17.87
2018-02-15T14:57:52.855Z,18.47
2018-02-15T15:02:53.864Z,20.10
2018-02-15T15:07:55.616Z,20.57
2018-02-15T15:12:56.636Z,21.27
2018-02-15T15:17:57.647Z,20.00
2018-02-15T15:22:58.656Z,19.30
2018-02-15T15:27:59.673Z,22.13
2018-02-15T15:33:00.662Z,19.43
2018-02-15T15:38:01.688Z,22.73
2018-02-15T15:43:02.713Z,20.23
2018-02-15T15:48:04.248Z,19.30
2018-02-15T15:53:05.254Z,23.50
2018-02-15T15:58:06.998Z,22.57
2018-02-15T16:03:08.015Z,22.97
2018-02-15T16:08:09.015Z,23.67
2018-02-15T16:13:10.015Z,20.40
2018-02-15T16:18:11.044Z,22.60
2018-02-15T16:23:12.032Z,28.00
2018-02-15T16:28:13.015Z,25.90
2018-02-15T16:33:14.015Z,26.60
2018-02-15T16:38:15.013Z,25.80
2018-02-15T16:43:16.003Z,25.00
2018-02-15T16:48:17.761Z,29.53
2018-02-15T16:53:18.769Z,28.90
2018-02-15T16:58:19.799Z,30.37
2018-02-15T17:03:20.807Z,30.53
2018-02-15T17:08:21.803Z,31.00
2018-02-15T17:13:22.990Z,27.03
2018-02-15T17:18:24.004Z,31.40
2018-02-15T17:23:25.759Z,34.60
2018-02-15T17:28:27.042Z,28.37
2018-02-15T17:33:28.047Z,33.73
2018-02-15T17:38:29.039Z,31.40
2018-02-15T17:43:30.063Z,33.40
2018-02-15T17:48:31.059Z,31.00
2018-02-15T17:53:32.065Z,24.50
2018-02-15T17:58:33.098Z,27.67
2018-02-15T18:03:34.851Z,25.60
2018-02-15T18:08:35.849Z,28.10
2018-02-15T18:13:36.863Z,25.80
2018-02-15T18:18:38.598Z,24.73
2018-02-15T18:23:39.574Z,27.20
2018-02-15T18:28:40.591Z,25.40
2018-02-15T18:33:41.591Z,26.63
2018-02-15T18:38:42.604Z,22.30
2018-02-15T18:43:43.592Z,25.47
2018-02-15T18:48:44.590Z,27.60
2018-02-15T18:53:45.587Z,25.20
2018-02-15T18:58:46.607Z,24.70
2018-02-15T19:03:48.335Z,18.50
2018-02-15T19:08:56.227Z,23.47
2018-02-15T19:13:57.231Z,22.47
2018-02-15T19:18:58.223Z,22.83
2018-02-15T19:24:00.040Z,22.93
2018-02-15T19:29:01.067Z,22.17
2018-02-15T19:34:02.090Z,23.90
2018-02-15T19:39:03.822Z,24.73
2018-02-15T19:44:05.369Z,23.53
2018-02-15T19:49:06.553Z,23.53
2018-02-15T19:54:07.964Z,22.80
2018-02-15T19:59:09.020Z,24.00
2018-02-15T20:04:10.019Z,23.53
2018-02-15T20:09:11.773Z,25.40
2018-02-15T20:14:13.388Z,23.07
2018-02-15T20:19:15.150Z,24.80
2018-02-15T20:24:16.671Z,24.20
2018-02-15T20:29:17.839Z,24.20
2018-02-15T20:34:18.862Z,23.80
2018-02-15T20:39:25.947Z,29.70
2018-02-15T20:44:26.939Z,25.50
2018-02-15T20:49:34.156Z,24.80
2018-02-15T20:54:41.285Z,26.20
2018-02-15T20:59:42.870Z,24.30
2018-02-15T21:04:44.035Z,26.97
2018-02-15T21:09:45.838Z,27.30
2018-02-15T21:14:47.727Z,27.80
2018-02-15T21:19:49.663Z,28.70
2018-02-15T21:24:51.047Z,28.93
2018-02-15T21:29:52.786Z,26.97
2018-02-15T21:34:53.807Z,26.77
2018-02-15T21:39:54.795Z,29.30
2018-02-15T21:44:55.827Z,28.33
2018-02-15T21:49:57.399Z,26.73
2018-02-15T21:54:58.407Z,29.00
2018-02-15T21:59:59.479Z,31.43
2018-02-15T22:05:00.483Z,30.63
2018-02-15T22:10:01.538Z,30.60
2018-02-15T22:15:02.566Z,28.60
2018-02-15T22:20:03.640Z,27.60
2018-02-15T22:25:04.652Z,27.27
2018-02-15T22:30:05.647Z,27.87
2018-02-15T22:35:07.395Z,27.67
2018-02-15T22:40:08.446Z,29.20
2018-02-15T22:45:10.167Z,28.17
2018-02-15T22:50:11.159Z,27.30
2018-02-15T22:55:12.161Z,26.70
2018-02-15T23:00:13.146Z,26.73
2018-02-15T23:05:14.160Z,27.33
2018-02-15T23:10:15.898Z,29.07
2018-02-15T23:15:16.879Z,28.57
2018-02-15T23:20:17.891Z,28.60
2018-02-15T23:25:18.896Z,26.20
2018-02-15T23:30:19.923Z,28.10
2018-02-15T23:35:20.940Z,26.40
2018-02-15T23:40:21.939Z,26.47
2018-02-15T23:45:22.964Z,29.27
2018-02-15T23:50:23.975Z,31.50
2018-02-15T23:55:24.987Z,38.70
